Time;durP1;ratioP1;P1;durP2;ratioP2;P2;SDS_P1;SDS_P2;PMS_P1;PMS_P2;Temp;Humidity;BMP_temperature;BMP_pressure;BME280_temperature;BME280_humidity;BME280_pressure;Samples;Min_cycle;Max_cycle;Signal;HPM_P1;HPM_P2
2021/11/07 00:00:56;;;;;;;10.50;5.60;;;;;;;6.54;60.44;101378.45;1729431;80;21204;-59
2021/11/07 00:05:03;;;;;;;11.55;5.70;;;;;;;6.66;60.41;101374.81;1795081;79;22174;-59
2021/11/07 00:07:41;;;;;;;11.40;5.47;;;;;;;6.67;60.38;101383.50;1775457;78;21074;-58
2021/11/07 00:10:06;;;;;;;7.92;4.87;;;;;;;6.74;60.19;101381.44;1769758;78;21214;-58
2021/11/07 00:12:37;;;;;;;10.38;5.33;;;;;;;6.70;60.18;101379.43;1772048;78;21070;-59
2021/11/07 00:14:58;;;;;;;10.20;5.65;;;;;;;6.66;60.31;101376.59;1778004;78;21129;-59
2021/11/07 00:17:29;;;;;;;9.25;5.25;;;;;;;6.61;60.43;101372.04;1773937;78;21074;-59
2021/11/07 00:20:04;;;;;;;13.05;5.03;;;;;;;6.59;60.44;101372.55;1770988;78;21049;-59
2021/11/07 00:22:33;;;;;;;11.08;5.47;;;;;;;6.56;60.53;101369.64;1776212;79;22535;-58
2021/11/07 00:27:41;;;;;;;9.68;5.92;;;;;;;6.51;60.62;101370.31;1747737;80;21041;-59
2021/11/07 00:33:19;;;;;;;10.25;5.22;;;;;;;6.44;60.81;101361.91;1745090;79;21707;-59
2021/11/07 00:35:44;;;;;;;10.55;5.00;;;;;;;6.38;60.95;101358.27;1743401;79;21410;-59
2021/11/07 00:37:53;;;;;;;9.55;4.47;;;;;;;6.34;61.06;101355.42;1771154;78;21108;-59
2021/11/07 00:43:29;;;;;;;8.80;5.30;;;;;;;6.27;61.36;101352.25;1779894;78;21074;-58
2021/11/07 00:51:07;;;;;;;9.47;5.03;;;;;;;6.39;61.30;101339.06;1770930;78;21054;-59
2021/11/07 00:53:51;;;;;;;10.75;5.10;;;;;;;6.39;61.20;101342.98;1773987;78;21079;-56
2021/11/07 01:01:35;;;;;;;14.10;5.20;;;;;;;6.33;61.26;101328.87;1682581;78;21341;-58
2021/11/07 01:04:03;;;;;;;8.70;4.80;;;;;;;6.30;61.37;101325.09;1726100;80;21065;-59
2021/11/07 01:06:30;;;;;;;8.68;4.92;;;;;;;6.30;61.38;101322.05;1737652;80;21595;-59
2021/11/07 01:08:57;;;;;;;11.80;5.67;;;;;;;6.30;61.40;101325.09;1734332;80;21105;-59
2021/11/07 01:11:24;;;;;;;10.45;5.92;;;;;;;6.29;61.41;101312.97;1741178;80;21019;-59
2021/11/07 01:13:50;;;;;;;7.95;4.30;;;;;;;6.27;61.41;101322.19;1736593;80;21101;-58
2021/11/07 01:16:18;;;;;;;10.10;4.90;;;;;;;6.23;61.55;101318.00;1713611;81;21082;-59
2021/11/07 01:18:46;;;;;;;8.70;4.85;;;;;;;6.25;61.57;101317.47;1734826;80;21023;-59
2021/11/07 01:21:14;;;;;;;11.18;5.47;;;;;;;6.32;61.47;101314.11;1710124;80;21101;-60
2021/11/07 01:23:47;;;;;;;9.60;5.30;;;;;;;6.37;61.37;101317.38;1734538;81;21098;-59
2021/11/07 01:27:05;;;;;;;8.65;4.08;;;;;;;6.42;61.41;101316.70;1735209;80;21136;-60
2021/11/07 01:28:52;;;;;;;10.68;5.05;;;;;;;6.41;61.41;101308.45;1719421;80;21558;-59
2021/11/07 01:31:13;;;;;;;9.63;4.92;;;;;;;6.40;61.45;101308.05;1739156;80;21098;-59
2021/11/07 01:33:40;;;;;;;9.78;5.08;;;;;;;6.39;61.44;101298.98;1738819;80;21520;-59
2021/11/07 01:41:16;;;;;;;10.70;5.87;;;;;;;6.35;61.52;101295.66;1687162;81;21717;-59
2021/11/07 01:43:33;;;;;;;11.43;5.08;;;;;;;6.33;61.52;101293.12;1706696;82;21060;-58
2021/11/07 01:46:24;;;;;;;7.97;4.45;;;;;;;6.31;61.59;101294.13;1738119;80;21133;-58
2021/11/07 01:48:51;;;;;;;10.18;5.22;;;;;;;6.31;61.61;101296.75;1732533;80;21059;-59
2021/11/07 01:51:14;;;;;;;12.30;5.53;;;;;;;6.26;61.67;101296.12;1739030;81;22377;-59
2021/11/07 01:53:41;;;;;;;11.95;5.08;;;;;;;6.21;61.80;101295.49;1737687;80;20968;-59
2021/11/07 01:56:10;;;;;;;9.15;4.95;;;;;;;6.23;61.81;101298.88;1734258;80;21493;-59
2021/11/07 01:58:38;;;;;;;8.88;4.22;;;;;;;6.31;61.74;101300.20;1741990;81;21086;-58
2021/11/07 02:01:05;;;;;;;8.80;4.42;;;;;;;6.39;61.61;101297.23;1736735;80;21578;-59
2021/11/07 02:03:33;;;;;;;8.83;5.28;;;;;;;6.44;61.52;101294.37;1682673;82;21955;-59
2021/11/07 02:06:01;;;;;;;8.70;5.05;;;;;;;6.44;61.45;101297.86;1744752;79;21036;-59
2021/11/07 02:08:30;;;;;;;10.50;5.78;;;;;;;6.41;61.45;101291.46;1758262;79;21143;-59
2021/11/07 02:10:57;;;;;;;9.75;5.05;;;;;;;6.40;61.37;101291.06;1759468;79;21055;-59
2021/11/07 02:13:25;;;;;;;9.70;5.05;;;;;;;6.38;61.35;101291.60;1765122;79;21043;-59
2021/11/07 02:15:52;;;;;;;11.18;5.58;;;;;;;6.37;61.31;101282.53;1745045;80;21189;-59
2021/11/07 02:18:18;;;;;;;12.70;5.83;;;;;;;6.34;61.32;101279.62;1764392;79;21095;-59
2021/11/07 02:20:46;;;;;;;9.33;5.42;;;;;;;6.28;61.40;101288.58;1760096;79;21059;-59
2021/11/07 02:23:16;;;;;;;10.00;5.47;;;;;;;6.23;61.48;101277.50;1764340;79;23377;-59
2021/11/07 02:25:44;;;;;;;8.53;4.50;;;;;;;6.19;61.67;101277.27;1764825;80;21060;-59
2021/11/07 02:28:11;;;;;;;12.80;5.90;;;;;;;6.18;61.69;101278.17;1759596;80;22004;-60
2021/11/07 02:30:39;;;;;;;9.15;4.87;;;;;;;6.16;61.82;101277.87;1738849;80;21019;-59
2021/11/07 02:33:07;;;;;;;9.18;5.60;;;;;;;6.16;61.79;101275.27;1768420;79;21047;-59
2021/11/07 02:35:34;;;;;;;8.23;4.70;;;;;;;6.12;61.73;101278.02;1742972;80;21026;-59
2021/11/07 02:38:00;;;;;;;8.88;4.78;;;;;;;6.16;61.65;101273.95;1761238;79;21060;-59
2021/11/07 02:40:27;;;;;;;12.20;5.15;;;;;;;6.21;61.50;101271.97;1756098;80;21568;-60
2021/11/07 02:42:53;;;;;;;10.63;4.67;;;;;;;6.25;61.41;101271.73;1757123;79;21039;-60
2021/11/07 02:45:20;;;;;;;14.00;5.72;;;;;;;6.29;61.33;101271.98;1769149;79;21065;-59
2021/11/07 02:47:48;;;;;;;9.13;4.92;;;;;;;6.33;61.38;101271.37;1762414;79;21382;-59
2021/11/07 02:50:17;;;;;;;10.58;5.00;;;;;;;6.33;61.34;101270.91;1762747;79;21503;-60
2021/11/07 02:52:44;;;;;;;10.58;4.85;;;;;;;6.32;61.17;101272.28;1756300;79;21158;-60
2021/11/07 02:55:10;;;;;;;8.98;5.15;;;;;;;6.29;61.36;101273.29;1761877;80;21116;-60
2021/11/07 02:57:37;;;;;;;9.28;4.92;;;;;;;6.27;61.51;101278.19;1741838;79;21054;-58
2021/11/07 03:00:08;;;;;;;7.95;5.20;;;;;;;6.24;61.64;101280.98;1758781;79;21092;-59
2021/11/07 03:02:34;;;;;;;9.53;5.50;;;;;;;6.22;61.68;101278.44;1763914;79;21498;-59
2021/11/07 03:05:06;;;;;;;8.83;4.28;;;;;;;6.21;61.67;101285.04;1767871;79;21076;-58
2021/11/07 03:07:34;;;;;;;8.70;4.70;;;;;;;6.17;61.62;101288.70;1769910;79;21173;-60
2021/11/07 03:10:00;;;;;;;9.75;4.50;;;;;;;6.10;61.71;101281.60;1765959;79;21507;-59
2021/11/07 03:12:27;;;;;;;8.20;5.10;;;;;;;6.06;61.85;101286.12;1768069;79;21067;-59
2021/11/07 03:14:55;;;;;;;9.18;5.03;;;;;;;6.00;61.80;101285.13;1774352;79;21071;-59
2021/11/07 03:17:25;;;;;;;8.58;5.05;;;;;;;5.91;61.93;101286.81;1760429;79;21608;-59
2021/11/07 03:19:53;;;;;;;9.25;5.28;;;;;;;5.85;62.02;101287.95;1773983;79;21114;-59
2021/11/07 03:22:25;;;;;;;9.45;5.12;;;;;;;5.85;62.01;101291.00;1777381;79;21059;-59
2021/11/07 03:24:54;;;;;;;10.03;5.47;;;;;;;5.90;61.92;101292.51;1775819;79;21011;-59
2021/11/07 03:27:29;;;;;;;9.65;4.90;;;;;;;5.87;61.99;101291.81;1740202;79;21057;-59
2021/11/07 03:29:58;;;;;;;8.63;5.03;;;;;;;5.81;62.11;101285.55;1756355;79;21106;-59
2021/11/07 03:32:27;;;;;;;8.83;5.00;;;;;;;5.70;62.27;101281.66;1770492;79;21094;-59
2021/11/07 03:34:56;;;;;;;8.93;5.03;;;;;;;5.60;62.48;101277.77;1774481;79;21023;-59
2021/11/07 03:37:23;;;;;;;11.15;5.22;;;;;;;5.53;62.63;101280.25;1779470;79;21047;-59
2021/11/07 03:39:51;;;;;;;11.73;5.55;;;;;;;5.46;62.87;101280.14;1741701;80;21027;-59
2021/11/07 03:42:18;;;;;;;10.28;5.45;;;;;;;5.39;63.03;101274.34;1771101;79;21167;-59
2021/11/07 03:44:45;;;;;;;10.63;5.50;;;;;;;5.34;63.13;101278.91;1740490;80;21518;-59
2021/11/07 03:47:11;;;;;;;9.70;5.25;;;;;;;5.27;63.38;101277.03;1764098;79;21086;-58
2021/11/07 03:49:39;;;;;;;9.20;5.47;;;;;;;5.22;63.47;101268.56;1738337;80;21027;-59
2021/11/07 03:52:07;;;;;;;10.68;5.45;;;;;;;5.20;63.61;101269.92;1734051;79;21011;-57
2021/11/07 03:54:33;;;;;;;11.08;6.05;;;;;;;5.25;63.49;101265.82;1771494;79;21213;-58
2021/11/07 03:57:01;;;;;;;9.78;5.55;;;;;;;5.29;63.47;101268.67;1762869;79;21100;-58
2021/11/07 03:59:27;;;;;;;10.90;5.50;;;;;;;5.28;63.46;101265.69;1740823;79;21082;-58
2021/11/07 04:01:54;;;;;;;10.18;6.33;;;;;;;5.24;63.58;101269.33;1741475;80;21520;-58
2021/11/07 04:04:21;;;;;;;11.12;6.05;;;;;;;5.17;63.63;101273.13;1763178;79;21071;-58
2021/11/07 04:06:47;;;;;;;11.05;6.50;;;;;;;5.10;63.70;101272.55;1757315;79;21149;-58
2021/11/07 04:09:14;;;;;;;11.70;6.40;;;;;;;5.03;63.82;101268.52;1766816;80;21130;-58
2021/11/07 04:11:41;;;;;;;10.58;5.90;;;;;;;4.94;63.91;101263.23;1756668;79;21062;-58
2021/11/07 04:14:08;;;;;;;12.93;6.55;;;;;;;4.87;64.09;101255.26;1766537;79;21028;-59
2021/11/07 04:16:35;;;;;;;9.48;6.67;;;;;;;4.80;64.27;101250.75;1742832;80;21031;-59
2021/11/07 04:19:02;;;;;;;13.32;6.25;;;;;;;4.77;64.38;101250.04;1766803;79;21191;-59
2021/11/07 04:21:29;;;;;;;10.85;5.95;;;;;;;4.73;64.57;101247.19;1768471;79;22005;-59
2021/11/07 04:23:55;;;;;;;9.40;5.45;;;;;;;4.75;64.58;101246.66;1741438;80;21102;-59
2021/11/07 04:26:22;;;;;;;9.85;5.87;;;;;;;4.82;64.37;101248.09;1758678;80;21097;-58
2021/11/07 04:28:50;;;;;;;12.73;5.92;;;;;;;4.87;64.42;101246.13;1737365;80;21536;-58
2021/11/07 04:31:16;;;;;;;12.45;5.60;;;;;;;4.90;64.43;101238.65;1759945;80;21375;-58
2021/11/07 04:33:43;;;;;;;11.05;6.20;;;;;;;4.89;64.40;101237.78;1757814;79;21042;-59
2021/11/07 04:36:10;;;;;;;12.55;6.15;;;;;;;4.89;64.37;101239.08;1761227;79;21061;-59
2021/11/07 04:38:37;;;;;;;13.25;6.45;;;;;;;4.89;64.29;101235.64;1754021;79;21035;-58
2021/11/07 04:41:05;;;;;;;15.72;7.12;;;;;;;4.89;64.26;101237.78;1767870;79;21051;-58
2021/11/07 04:43:32;;;;;;;10.75;6.70;;;;;;;4.88;64.30;101242.63;1718775;81;21092;-59
2021/11/07 04:45:58;;;;;;;10.80;6.80;;;;;;;4.87;64.43;101246.59;1702824;82;21070;-58
2021/11/07 04:48:25;;;;;;;10.08;6.47;;;;;;;4.89;64.44;101250.81;1757132;79;21059;-59
2021/11/07 04:50:52;;;;;;;10.30;6.00;;;;;;;4.89;64.43;101250.81;1751455;80;22443;-59
2021/11/07 04:53:22;;;;;;;11.95;6.25;;;;;;;4.91;64.48;101249.45;1765941;79;21042;-59
2021/11/07 04:55:49;;;;;;;10.20;5.90;;;;;;;4.92;64.39;101252.00;1733920;80;22294;-60
2021/11/07 04:58:16;;;;;;;11.10;5.72;;;;;;;4.96;64.26;101257.92;1759500;79;21098;-61
2021/11/07 05:00:42;;;;;;;11.10;5.72;;;;;;;5.05;64.06;101260.16;1760472;80;21047;-59
2021/11/07 05:03:09;;;;;;;10.90;5.95;;;;;;;5.11;63.83;101262.95;1759830;79;21080;-59
2021/11/07 05:05:35;;;;;;;10.70;5.42;;;;;;;5.15;63.74;101264.53;1744512;78;21054;-60
2021/11/07 05:08:03;;;;;;;11.03;5.72;;;;;;;5.09;63.79;101265.62;1762682;78;22002;-58
2021/11/07 05:10:29;;;;;;;12.55;7.10;;;;;;;5.05;63.86;101258.85;1784526;78;21085;-58
2021/11/07 05:12:57;;;;;;;12.63;6.40;;;;;;;5.02;63.98;101265.03;1779875;78;21090;-59
2021/11/07 05:15:23;;;;;;;11.75;5.67;;;;;;;5.01;63.96;101270.34;1749834;80;21042;-59
2021/11/07 05:17:50;;;;;;;10.20;6.03;;;;;;;4.97;63.97;101269.59;1777642;79;21618;-59
2021/11/07 05:20:16;;;;;;;11.43;7.15;;;;;;;4.93;63.99;101265.44;1777093;78;21325;-60
2021/11/07 05:22:43;;;;;;;12.03;7.00;;;;;;;4.91;64.02;101269.88;1773408;79;21012;-59
2021/11/07 05:25:11;;;;;;;10.65;6.47;;;;;;;4.87;64.05;101269.59;1708320;83;21142;-57
2021/11/07 05:27:38;;;;;;;11.12;7.15;;;;;;;4.82;64.13;101271.55;1708453;82;21062;-58
2021/11/07 05:30:07;;;;;;;11.65;6.58;;;;;;;4.82;64.19;101270.25;1691229;82;21084;-58
2021/11/07 05:32:35;;;;;;;10.40;6.25;;;;;;;4.94;64.12;101274.97;1720737;81;21113;-58
2021/11/07 05:35:02;;;;;;;12.15;6.42;;;;;;;5.03;63.96;101282.39;1696618;82;21808;-59
2021/11/07 05:37:28;;;;;;;11.45;7.12;;;;;;;5.10;63.89;101280.38;1703973;82;21031;-59
2021/11/07 05:39:54;;;;;;;12.23;6.85;;;;;;;5.10;63.88;101276.92;1705643;83;21071;-60
2021/11/07 05:42:21;;;;;;;12.13;6.33;;;;;;;5.09;63.89;101282.58;1714231;82;21055;-59
2021/11/07 05:44:48;;;;;;;10.53;6.20;;;;;;;5.09;63.89;101275.22;1712400;82;21043;-60
2021/11/07 05:47:14;;;;;;;15.25;7.28;;;;;;;5.09;63.87;101278.66;1720299;81;21059;-60
2021/11/07 05:49:40;;;;;;;12.20;6.53;;;;;;;5.09;63.86;101270.00;1720954;82;21617;-59
2021/11/07 05:52:07;;;;;;;11.18;6.45;;;;;;;5.06;63.86;101267.52;1731484;82;21100;-59
2021/11/07 05:54:33;;;;;;;10.03;7.75;;;;;;;5.08;63.86;101273.08;1736227;80;20998;-59
2021/11/07 05:57:01;;;;;;;11.97;6.62;;;;;;;5.09;63.83;101269.53;1711880;82;21033;-61
2021/11/07 05:59:29;;;;;;;11.38;6.42;;;;;;;5.12;63.88;101265.49;1705259;82;20959;-59
2021/11/07 06:01:57;;;;;;;9.85;6.17;;;;;;;5.14;63.74;101256.30;1725174;82;21063;-61
2021/11/07 06:04:23;;;;;;;13.83;7.05;;;;;;;5.16;63.73;101261.85;1717349;82;21665;-61
2021/11/07 06:06:50;;;;;;;11.00;6.67;;;;;;;5.25;63.64;101271.03;1716389;82;21094;-61
2021/11/07 06:09:16;;;;;;;12.25;6.53;;;;;;;5.41;63.38;101276.42;1689498;84;21089;-61
2021/11/07 06:11:42;;;;;;;12.10;5.87;;;;;;;5.54;63.19;101285.87;1708035;81;21141;-59
2021/11/07 06:14:10;;;;;;;13.55;6.92;;;;;;;5.62;62.96;101281.16;1709928;82;21061;-59
2021/11/07 06:16:37;;;;;;;10.72;6.60;;;;;;;5.65;62.75;101274.50;1714684;82;21469;-59
2021/11/07 06:19:05;;;;;;;10.23;6.12;;;;;;;5.65;62.61;101275.80;1708570;81;21011;-58
2021/11/07 06:21:33;;;;;;;10.63;6.20;;;;;;;5.66;62.65;101278.78;1712720;81;21208;-64
2021/11/07 06:23:59;;;;;;;11.95;6.87;;;;;;;5.67;62.54;101282.27;1706576;81;21019;-61
2021/11/07 06:26:25;;;;;;;11.33;6.45;;;;;;;5.68;62.53;101273.49;1709787;82;21023;-60
2021/11/07 06:28:52;;;;;;;12.05;6.90;;;;;;;5.69;62.52;101269.98;1689120;82;21090;-59
2021/11/07 06:31:22;;;;;;;10.58;6.62;;;;;;;5.73;62.44;101272.83;1679942;83;21022;-59
2021/11/07 06:33:49;;;;;;;12.80;7.75;;;;;;;5.76;62.43;101259.16;1687808;82;21055;-61
2021/11/07 06:36:15;;;;;;;12.23;7.25;;;;;;;5.80;62.54;101259.03;1710657;81;21513;-61
2021/11/07 06:38:42;;;;;;;10.78;5.78;;;;;;;5.85;62.52;101259.22;1692648;83;20999;-59
2021/11/07 06:41:08;;;;;;;11.88;6.00;;;;;;;5.92;62.39;101259.79;1683158;82;21118;-61
2021/11/07 06:43:36;;;;;;;13.00;7.47;;;;;;;5.96;62.31;101262.66;1704888;81;21757;-60
2021/11/07 06:46:03;;;;;;;17.45;7.62;;;;;;;6.05;61.97;101270.09;1690014;83;21085;-60
2021/11/07 06:48:30;;;;;;;12.98;7.12;;;;;;;6.16;61.73;101273.95;1713947;81;22209;-60
2021/11/07 06:50:57;;;;;;;12.33;7.40;;;;;;;6.28;61.69;101278.59;1719291;81;21110;-60
2021/11/07 06:53:24;;;;;;;10.48;6.90;;;;;;;6.40;61.50;101281.91;1717771;81;21134;-60
2021/11/07 06:55:51;;;;;;;11.25;6.92;;;;;;;6.45;61.51;101280.39;1713710;81;22253;-61
2021/11/07 06:58:17;;;;;;;12.23;6.83;;;;;;;6.49;61.44;101272.80;1691889;82;21063;-61
2021/11/07 07:00:44;;;;;;;10.82;6.15;;;;;;;6.54;61.32;101280.40;1718599;82;21090;-60
2021/11/07 07:03:10;;;;;;;9.68;6.03;;;;;;;6.56;61.14;101265.50;1716563;81;21062;-61
2021/11/07 07:05:37;;;;;;;13.15;6.90;;;;;;;6.58;61.11;101264.96;1718480;82;21050;-60
2021/11/07 07:08:14;;;;;;;13.78;6.35;;;;;;;6.58;61.01;101257.95;1724044;80;21142;-62
2021/11/07 07:10:44;;;;;;;12.75;6.90;;;;;;;6.58;61.15;101250.11;1771156;79;21193;-59
2021/11/07 07:13:10;;;;;;;11.20;6.28;;;;;;;6.61;61.38;101236.89;1767189;79;21077;-60
2021/11/07 07:15:42;;;;;;;11.18;6.08;;;;;;;6.69;61.27;101237.35;1757256;79;21133;-58
2021/11/07 07:24:04;;;;;;;14.60;6.33;;;;;;;6.84;60.49;101228.33;1773017;79;21212;-58
2021/11/07 07:28:53;;;;;;;12.53;6.53;;;;;;;7.12;60.48;101220.38;1767899;79;21085;-59
2021/11/07 07:31:43;;;;;;;12.47;6.65;;;;;;;7.23;60.05;101204.50;1728198;79;22034;-59
2021/11/07 07:36:26;;;;;;;13.10;7.00;;;;;;;7.45;60.14;101200.73;1769527;79;21099;-59
2021/11/07 07:38:53;;;;;;;11.25;6.37;;;;;;;7.55;59.51;101201.93;1770993;79;21142;-58
2021/11/07 07:41:19;;;;;;;10.32;6.17;;;;;;;7.63;59.32;101202.80;1741402;80;21015;-59
2021/11/07 07:43:46;;;;;;;10.53;6.25;;;;;;;7.69;59.28;101203.78;1733680;79;21043;-58
2021/11/07 07:46:13;;;;;;;10.38;5.87;;;;;;;7.77;59.24;101195.52;1766919;79;21067;-60
2021/11/07 07:48:45;;;;;;;10.43;6.22;;;;;;;7.85;59.20;101193.32;1772246;79;21070;-60
2021/11/07 07:51:10;;;;;;;9.60;5.85;;;;;;;7.93;58.69;101200.27;1777597;79;21074;-59
2021/11/07 07:53:38;;;;;;;9.83;5.92;;;;;;;7.98;58.71;101197.39;1770842;79;21049;-59
2021/11/07 07:56:05;;;;;;;13.08;6.83;;;;;;;8.03;58.80;101204.53;1739653;80;21039;-59
2021/11/07 07:58:32;;;;;;;11.53;5.95;;;;;;;8.10;58.54;101199.79;1773804;79;21045;-59
2021/11/07 08:00:58;;;;;;;9.93;6.05;;;;;;;8.17;58.58;101206.39;1767085;79;22364;-58
2021/11/07 08:03:25;;;;;;;11.68;6.00;;;;;;;8.21;57.66;101220.17;1771792;79;21087;-59
2021/11/07 08:05:51;;;;;;;11.88;6.62;;;;;;;8.18;57.89;101210.69;1773856;79;21104;-59
2021/11/07 08:08:17;;;;;;;10.35;6.28;;;;;;;8.17;58.14;101211.16;1764038;79;21089;-59
2021/11/07 08:10:44;;;;;;;11.75;5.75;;;;;;;8.19;58.31;101197.49;1778099;79;21039;-61
2021/11/07 08:13:12;;;;;;;10.58;6.30;;;;;;;8.27;58.50;101197.06;1763297;80;21579;-61
2021/11/07 08:15:40;;;;;;;11.22;6.25;;;;;;;8.42;58.10;101193.16;1760663;79;21063;-59
2021/11/07 08:18:06;;;;;;;10.78;6.05;;;;;;;8.61;57.76;101187.27;1701095;82;21509;-59
2021/11/07 08:20:33;;;;;;;10.30;6.70;;;;;;;8.73;57.30;101183.91;1735864;80;21137;-59
2021/11/07 08:23:00;;;;;;;11.03;6.28;;;;;;;8.83;57.11;101182.06;1762319;79;21066;-59
2021/11/07 08:25:27;;;;;;;11.63;6.83;;;;;;;8.89;56.98;101185.16;1756187;79;21625;-59
2021/11/07 08:28:03;;;;;;;11.80;6.40;;;;;;;8.96;56.68;101174.27;1747955;80;21086;-59
2021/11/07 08:30:30;;;;;;;10.65;5.42;;;;;;;8.98;56.67;101170.62;1764653;79;21535;-59
2021/11/07 08:32:58;;;;;;;10.40;5.75;;;;;;;9.05;56.60;101168.00;1738536;80;21038;-59
2021/11/07 08:35:24;;;;;;;10.60;5.90;;;;;;;9.10;56.34;101159.37;1748967;79;21074;-59
2021/11/07 08:37:58;;;;;;;10.75;5.78;;;;;;;9.18;56.43;101159.36;1768167;80;22778;-62
2021/11/07 08:40:30;;;;;;;12.18;5.92;;;;;;;9.24;56.37;101154.57;1762091;79;21027;-60
2021/11/07 08:42:57;;;;;;;11.18;5.65;;;;;;;9.31;56.15;101153.72;1759869;79;21074;-61
2021/11/07 09:09:30;;;;;;;11.57;5.97;;;;;;;9.89;55.46;101129.95;1737536;82;21059;-59
2021/11/07 09:11:58;;;;;;;9.75;6.12;;;;;;;9.94;55.61;101114.71;1736486;81;21087;-59
2021/11/07 09:14:37;;;;;;;8.48;5.37;;;;;;;10.01;55.53;101114.19;1704028;81;21142;-59
2021/11/07 09:17:02;;;;;;;10.70;6.40;;;;;;;10.08;55.12;101104.59;1726503;80;21114;-59
2021/11/07 09:19:30;;;;;;;10.10;5.80;;;;;;;10.09;55.28;101100.55;1734652;81;20976;-59
2021/11/07 09:22:11;;;;;;;12.37;6.37;;;;;;;10.14;55.16;101097.14;1733975;82;21031;-58
2021/11/07 09:24:44;;;;;;;13.03;6.17;;;;;;;10.20;54.94;101098.50;1707059;82;22946;-59
2021/11/07 09:27:14;;;;;;;10.05;5.75;;;;;;;10.23;54.72;101100.45;1730257;80;21098;-58
2021/11/07 09:30:23;;;;;;;9.88;5.58;;;;;;;10.29;54.81;101104.92;1690021;82;21122;-59
2021/11/07 09:34:50;;;;;;;8.85;5.50;;;;;;;10.45;54.90;101091.14;1714827;82;21047;-60
2021/11/07 09:37:28;;;;;;;11.97;6.10;;;;;;;10.46;53.84;101094.16;1743314;80;21058;-59
2021/11/07 09:39:56;;;;;;;11.10;5.90;;;;;;;10.43;54.25;101093.52;1734620;82;21094;-60
2021/11/07 09:44:52;;;;;;;11.78;5.65;;;;;;;10.37;54.27;101085.10;1729438;82;21031;-59
2021/11/07 09:47:19;;;;;;;10.25;6.08;;;;;;;10.35;54.45;101087.45;1731677;81;21461;-58
2021/11/07 09:49:47;;;;;;;11.43;5.55;;;;;;;10.35;54.36;101065.92;1726998;81;21126;-60
2021/11/07 09:52:22;;;;;;;11.40;6.17;;;;;;;10.41;54.54;101060.74;1728514;80;21129;-59
2021/11/07 09:54:50;;;;;;;11.38;5.70;;;;;;;10.51;54.29;101047.31;1727576;82;21036;-59
2021/11/07 09:57:20;;;;;;;11.63;5.72;;;;;;;10.63;53.84;101050.88;1689354;82;21083;-59
2021/11/07 09:59:44;;;;;;;9.65;5.50;;;;;;;10.73;53.55;101032.66;1706577;82;21135;-59
2021/11/07 10:02:12;;;;;;;8.20;5.58;;;;;;;10.81;53.30;101022.44;1738462;82;21790;-59
2021/11/07 10:04:39;;;;;;;10.23;5.42;;;;;;;10.88;53.14;101015.78;1736687;82;21035;-60
2021/11/07 10:07:23;;;;;;;10.93;5.80;;;;;;;10.91;52.58;101012.93;1741304;79;21122;-59
2021/11/07 10:09:56;;;;;;;9.80;6.10;;;;;;;10.94;53.10;101016.67;1737353;80;21572;-59
2021/11/07 10:12:36;;;;;;;10.40;5.47;;;;;;;11.02;52.86;101007.37;1764789;79;21082;-59
2021/11/07 10:15:02;;;;;;;10.60;6.15;;;;;;;11.10;52.79;101011.61;1757841;80;21074;-60
2021/11/07 10:17:45;;;;;;;11.45;6.03;;;;;;;11.12;52.30;101001.31;1762411;80;21090;-59
2021/11/07 10:20:38;;;;;;;9.93;4.97;;;;;;;11.17;52.64;100998.35;1759064;79;21125;-60
2021/11/07 10:23:27;;;;;;;9.60;4.83;;;;;;;11.23;51.90;100984.74;1762153;80;21566;-60
2021/11/07 10:26:16;;;;;;;10.25;5.28;;;;;;;11.27;51.52;100982.23;1757759;79;21086;-60
2021/11/07 10:28:46;;;;;;;10.55;5.47;;;;;;;11.29;50.85;100990.86;1732761;81;21104;-60
2021/11/07 10:31:28;;;;;;;11.95;5.83;;;;;;;11.30;51.32;100989.09;1759546;79;21082;-60
2021/11/07 10:39:41;;;;;;;9.23;4.80;;;;;;;11.43;51.48;100991.64;1735572;81;21008;-58
2021/11/07 10:42:17;;;;;;;10.98;5.12;;;;;;;11.54;50.63;100985.10;1763564;79;21044;-59
2021/11/07 10:52:47;;;;;;;9.55;4.83;;;;;;;11.91;50.03;100986.32;1766032;80;21591;-59
2021/11/07 10:55:22;;;;;;;7.97;5.03;;;;;;;11.97;49.73;100984.54;1751188;80;21055;-59
2021/11/07 10:57:55;;;;;;;9.03;5.05;;;;;;;12.02;49.46;100976.25;1747867;80;21110;-60
2021/11/07 11:00:39;;;;;;;10.10;4.85;;;;;;;12.04;48.68;100958.54;1765517;79;21142;-59
2021/11/07 11:03:13;;;;;;;8.05;4.67;;;;;;;12.04;48.84;100959.86;1742030;79;21098;-60
2021/11/07 11:08:29;;;;;;;8.98;4.65;;;;;;;12.08;48.59;100943.65;1718346;82;21630;-55
2021/11/07 11:13:34;;;;;;;8.50;4.95;;;;;;;12.03;48.31;100941.02;1681101;83;21135;-59
2021/11/07 11:18:46;;;;;;;9.35;5.50;;;;;;;12.01;48.79;100938.50;1670601;82;21121;-59
2021/11/07 11:24:05;;;;;;;6.33;3.77;;;;;;;11.95;49.12;100940.28;1741276;82;21070;-58
2021/11/07 11:26:40;;;;;;;8.68;4.72;;;;;;;11.95;48.76;100950.00;1726476;81;21539;-59
2021/11/07 11:29:11;;;;;;;8.50;4.62;;;;;;;11.96;48.71;100949.88;1731226;81;21051;-59
2021/11/07 11:31:43;;;;;;;8.35;4.12;;;;;;;11.98;48.61;100951.92;1715913;82;21038;-58
2021/11/07 11:34:11;;;;;;;8.43;5.05;;;;;;;11.99;48.75;100941.73;1738011;80;21055;-59
2021/11/07 11:36:37;;;;;;;9.80;5.33;;;;;;;12.02;48.76;100931.41;1736813;81;21042;-59
2021/11/07 11:39:13;;;;;;;10.82;4.85;;;;;;;12.05;48.83;100922.81;1712729;82;21162;-59
2021/11/07 11:41:50;;;;;;;8.90;5.15;;;;;;;12.08;48.58;100911.17;1692150;83;21058;-59
2021/11/07 11:44:15;;;;;;;8.93;4.92;;;;;;;12.13;48.80;100912.13;1730083;81;21071;-59
2021/11/07 11:50:12;;;;;;;8.40;5.12;;;;;;;12.24;48.79;100889.72;1706878;80;21488;-59
2021/11/07 11:52:37;;;;;;;9.90;5.67;;;;;;;12.27;48.93;100884.17;1710787;82;21177;-60
2021/11/07 11:55:14;;;;;;;9.88;5.15;;;;;;;12.31;48.69;100880.34;1741948;81;21524;-59
2021/11/07 11:57:53;;;;;;;9.08;5.30;;;;;;;12.32;48.70;100882.49;1740667;80;21007;-59
2021/11/07 12:05:53;;;;;;;12.93;5.78;;;;;;;12.55;48.77;100886.77;1738570;80;21211;-59
2021/11/07 12:08:25;;;;;;;11.53;5.80;;;;;;;12.60;48.70;100875.84;1734416;80;21064;-59
2021/11/07 12:10:57;;;;;;;10.70;6.58;;;;;;;12.63;48.93;100871.64;1742950;81;21091;-59
2021/11/07 12:13:38;;;;;;;9.90;6.58;;;;;;;12.70;48.63;100867.53;1721440;80;21011;-59
2021/11/07 12:16:10;;;;;;;10.25;5.83;;;;;;;12.67;48.21;100862.98;1748189;80;21068;-60
2021/11/07 12:18:30;;;;;;;11.65;6.12;;;;;;;12.60;48.15;100871.89;1717057;82;21115;-61
2021/11/07 12:22:38;;;;;;;9.53;5.47;;;;;;;12.51;48.67;100864.23;1824220;78;22628;-59
2021/11/07 12:25:08;;;;;;;10.25;5.78;;;;;;;12.43;48.74;100860.05;1806883;77;21607;-59
2021/11/07 12:27:43;;;;;;;9.55;6.10;;;;;;;12.37;48.47;100872.41;1778170;78;21667;-59
2021/11/07 12:30:15;;;;;;;13.38;6.17;;;;;;;12.23;48.74;100877.47;1791809;78;20975;-59
2021/11/07 12:32:45;;;;;;;10.00;6.00;;;;;;;12.09;49.10;100864.06;1794001;78;21045;-59
2021/11/07 12:35:55;;;;;;;13.80;6.62;;;;;;;11.99;49.49;100850.75;1809760;77;21086;-59
2021/11/07 12:41:05;;;;;;;10.03;6.17;;;;;;;11.86;49.68;100831.54;1807263;78;21154;-60
2021/11/07 12:43:37;;;;;;;13.62;7.10;;;;;;;11.77;50.03;100821.70;1797784;79;20963;-60
2021/11/07 12:46:58;;;;;;;12.15;6.35;;;;;;;11.70;50.15;100823.97;1757989;79;28197;-60
2021/11/07 12:49:07;;;;;;;10.98;6.47;;;;;;;11.66;50.38;100829.14;1763714;78;21045;-59
2021/11/07 12:51:40;;;;;;;13.38;6.05;;;;;;;11.63;50.66;100829.37;1800796;78;21600;-60
2021/11/07 12:54:13;;;;;;;11.15;6.33;;;;;;;11.61;50.90;100824.70;1791080;79;21870;-59
2021/11/07 12:57:06;;;;;;;10.23;5.90;;;;;;;11.61;51.09;100811.03;1803402;77;21097;-59
2021/11/07 12:59:44;;;;;;;12.73;6.37;;;;;;;11.60;50.71;100814.65;1743973;80;21070;-59
2021/11/07 13:02:31;;;;;;;11.73;6.58;;;;;;;11.55;50.95;100814.16;1742584;80;21040;-60
2021/11/07 13:05:13;;;;;;;9.80;5.75;;;;;;;11.51;51.30;100810.90;1738465;80;21102;-60
2021/11/07 13:07:51;;;;;;;10.78;6.05;;;;;;;11.51;51.59;100812.70;1735378;81;21126;-59
2021/11/07 13:10:39;;;;;;;11.97;6.58;;;;;;;11.49;51.68;100818.09;1726755;80;21364;-59
2021/11/07 13:13:01;;;;;;;11.63;6.12;;;;;;;11.45;51.63;100808.76;1724509;80;21576;-59
2021/11/07 13:21:36;;;;;;;11.45;5.95;;;;;;;11.27;51.62;100795.68;1734353;80;21190;-59
2021/11/07 13:29:32;;;;;;;10.65;5.92;;;;;;;11.03;52.32;100782.56;1760730;80;21078;-59